createdAt,value
2023-02-13T00:01:04.861Z,101509.22
2023-02-13T00:03:32.369Z,101508.25
2023-02-13T00:05:59.884Z,101513.44
2023-02-13T00:08:27.369Z,101516.22
2023-02-13T00:10:55.168Z,101509.88
2023-02-13T00:13:22.794Z,101519.84
2023-02-13T00:15:59.083Z,101517.97
2023-02-13T00:18:27.729Z,101520.97
2023-02-13T00:21:08.177Z,101525.69
2023-02-13T00:23:37.731Z,101527.22
2023-02-13T00:26:11.657Z,101525.38
2023-02-13T00:28:44.210Z,101521.66
2023-02-13T00:31:15.776Z,101523.53
2023-02-13T00:33:45.198Z,101518.56
2023-02-13T00:36:21.961Z,101516.16
2023-02-13T00:38:49.887Z,101520.94
2023-02-13T00:41:18.342Z,101527.78
2023-02-13T00:43:49.350Z,101525.09
2023-02-13T00:46:18.141Z,101520.66
2023-02-13T00:48:46.526Z,101527.06
2023-02-13T00:51:14.325Z,101527.66
2023-02-13T00:53:42.132Z,101541.88
2023-02-13T00:56:10.071Z,101528.84
2023-02-13T00:58:38.239Z,101525.91
2023-02-13T01:01:05.915Z,101531.19
2023-02-13T01:03:33.581Z,101533.00
2023-02-13T01:06:01.208Z,101538.38
2023-02-13T01:08:28.883Z,101530.94
2023-02-13T01:10:57.505Z,101525.34
2023-02-13T01:13:26.274Z,101533.16
2023-02-13T01:15:54.957Z,101538.94
2023-02-13T01:18:22.499Z,101532.59
2023-02-13T01:21:17.998Z,101530.97
2023-02-13T01:23:47.063Z,101536.00
2023-02-13T01:26:22.983Z,101528.44
2023-02-13T01:28:58.102Z,101539.28
2023-02-13T01:31:26.623Z,101528.72
2023-02-13T01:33:58.859Z,101529.97
2023-02-13T01:36:27.356Z,101534.53
2023-02-13T01:38:59.874Z,101533.78
2023-02-13T01:41:28.766Z,101535.63
2023-02-13T01:44:01.856Z,101541.78
2023-02-13T01:46:44.965Z,101537.09
2023-02-13T01:49:18.835Z,101533.91
2023-02-13T01:51:48.725Z,101541.13
2023-02-13T01:54:31.009Z,101542.97
2023-02-13T01:57:18.914Z,101536.84
2023-02-13T01:59:54.380Z,101547.59
2023-02-13T02:02:23.380Z,101536.06
2023-02-13T02:04:52.080Z,101536.88
2023-02-13T02:07:31.025Z,101536.50
2023-02-13T02:10:10.639Z,101541.28
2023-02-13T02:12:48.246Z,101547.25
2023-02-13T02:15:19.405Z,101554.25
2023-02-13T02:17:48.004Z,101549.28
2023-02-13T02:20:50.379Z,101552.06
2023-02-13T02:24:26.697Z,101559.63
2023-02-13T02:27:38.538Z,101557.84
2023-02-13T02:30:40.318Z,101563.81
2023-02-13T02:33:24.867Z,101572.19
2023-02-13T02:36:05.592Z,101571.97
2023-02-13T02:38:45.719Z,101572.16
2023-02-13T02:41:42.334Z,101577.16
2023-02-13T02:44:25.357Z,101568.41
2023-02-13T02:47:57.398Z,101564.19
2023-02-13T02:50:27.749Z,101571.38
2023-02-13T02:53:31.006Z,101576.75
2023-02-13T02:56:49.285Z,101578.72
2023-02-13T02:59:40.024Z,101578.34
2023-02-13T03:02:29.951Z,101581.09
2023-02-13T03:05:18.186Z,101577.09
2023-02-13T03:07:45.746Z,101579.09
2023-02-13T03:10:42.152Z,101579.09
2023-02-13T03:13:44.039Z,101574.91
2023-02-13T03:16:37.159Z,101585.06
2023-02-13T03:19:23.468Z,101578.66
2023-02-13T03:22:23.678Z,101577.03
2023-02-13T03:25:30.412Z,101589.06
2023-02-13T03:28:26.446Z,101594.47
2023-02-13T03:31:27.508Z,101591.56
2023-02-13T03:34:13.616Z,101595.59
2023-02-13T03:37:29.779Z,101590.34
2023-02-13T03:40:05.537Z,101583.31
2023-02-13T03:42:53.271Z,101590.22
2023-02-13T03:45:52.018Z,101588.50
2023-02-13T03:48:49.729Z,101586.00
2023-02-13T03:51:24.503Z,101575.16
2023-02-13T03:53:59.514Z,101580.38
2023-02-13T03:56:47.526Z,101581.16
2023-02-13T03:59:25.137Z,101591.50
2023-02-13T04:02:10.157Z,101591.84
2023-02-13T04:05:18.745Z,101608.78
2023-02-13T04:07:46.360Z,101618.00
2023-02-13T04:10:17.993Z,101616.63
2023-02-13T04:13:13.115Z,101619.03
2023-02-13T04:16:08.548Z,101619.78
2023-02-13T04:18:36.542Z,101612.34
2023-02-13T04:21:08.571Z,101607.16
2023-02-13T04:23:37.070Z,101619.44
2023-02-13T04:26:09.372Z,101617.75
2023-02-13T04:28:36.941Z,101618.63
2023-02-13T04:31:04.694Z,101626.09
2023-02-13T04:33:33.306Z,101627.91
2023-02-13T04:36:00.811Z,101628.31
2023-02-13T04:38:28.299Z,101616.59
2023-02-13T04:40:56.110Z,101620.84
2023-02-13T04:43:23.720Z,101617.28
2023-02-13T04:45:52.189Z,101628.03
2023-02-13T04:48:19.686Z,101633.00
2023-02-13T04:50:48.117Z,101629.78
2023-02-13T04:53:16.511Z,101620.59
2023-02-13T04:55:44.084Z,101631.81
2023-02-13T04:58:11.589Z,101639.38
2023-02-13T05:00:39.162Z,101624.78
2023-02-13T05:03:12.665Z,101633.38
2023-02-13T05:05:41.099Z,101639.22
2023-02-13T05:08:09.448Z,101637.53
2023-02-13T05:10:37.075Z,101639.56
2023-02-13T05:13:04.567Z,101652.78
2023-02-13T05:15:32.137Z,101649.09
2023-02-13T05:17:59.929Z,101653.28
2023-02-13T05:20:27.412Z,101650.56
2023-02-13T05:23:14.665Z,101652.53
2023-02-13T05:25:42.977Z,101641.84
2023-02-13T05:28:30.520Z,101654.59
2023-02-13T05:30:58.560Z,101650.09
2023-02-13T05:33:27.100Z,101655.00
2023-02-13T05:35:54.506Z,101650.66
2023-02-13T05:38:22.067Z,101653.28
2023-02-13T05:40:49.480Z,101656.31
2023-02-13T05:43:17.166Z,101663.81
2023-02-13T05:45:44.561Z,101662.38
2023-02-13T05:48:12.236Z,101666.78
2023-02-13T05:50:39.824Z,101667.16
2023-02-13T05:53:07.280Z,101674.66
2023-02-13T05:55:34.797Z,101671.31
2023-02-13T05:58:02.285Z,101672.75
2023-02-13T06:00:29.811Z,101667.59
2023-02-13T06:02:57.324Z,101680.84
2023-02-13T06:05:24.858Z,101666.00
2023-02-13T06:07:52.276Z,101670.06
2023-02-13T06:10:19.775Z,101671.91
2023-02-13T06:12:47.183Z,101673.63
2023-02-13T06:15:14.620Z,101674.44
2023-02-13T06:17:42.075Z,101678.78
2023-02-13T06:20:10.202Z,101682.69
2023-02-13T06:22:37.714Z,101671.78
2023-02-13T06:25:05.960Z,101678.00
2023-02-13T06:27:33.370Z,101668.47
2023-02-13T06:30:01.725Z,101678.41
2023-02-13T06:32:29.399Z,101683.19
2023-02-13T06:34:56.828Z,101684.09
2023-02-13T06:37:24.323Z,101685.50
2023-02-13T06:39:51.786Z,101675.81
2023-02-13T06:42:19.190Z,101675.91
2023-02-13T06:44:46.689Z,101674.31
2023-02-13T06:47:14.177Z,101678.13
2023-02-13T06:49:41.611Z,101685.75
2023-02-13T06:52:09.158Z,101679.41
2023-02-13T06:54:46.889Z,101678.63
2023-02-13T06:57:16.060Z,101676.44
2023-02-13T06:59:44.537Z,101674.72
2023-02-13T07:02:13.405Z,101676.72
2023-02-13T07:04:41.153Z,101681.91
2023-02-13T07:07:08.649Z,101678.91
2023-02-13T07:09:36.445Z,101687.25
2023-02-13T07:12:06.047Z,101684.28
2023-02-13T07:14:33.484Z,101688.44
2023-02-13T07:17:00.944Z,101687.38
2023-02-13T07:19:28.451Z,101687.72
2023-02-13T07:21:55.893Z,101689.03
2023-02-13T07:24:23.420Z,101691.22
2023-02-13T07:26:51.030Z,101687.78
2023-02-13T07:29:18.534Z,101686.53
2023-02-13T07:31:46.082Z,101682.13
2023-02-13T07:34:13.528Z,101695.59
2023-02-13T07:36:40.943Z,101692.53
2023-02-13T07:39:08.722Z,101692.97
2023-02-13T07:41:36.272Z,101683.88
2023-02-13T07:44:03.777Z,101681.16
2023-02-13T07:46:31.270Z,101686.28
2023-02-13T07:48:58.741Z,101682.13
2023-02-13T07:51:26.395Z,101681.97
2023-02-13T07:53:55.019Z,101687.44
2023-02-13T07:56:23.371Z,101680.72
2023-02-13T07:58:50.784Z,101682.72
2023-02-13T08:01:19.954Z,101685.75
2023-02-13T08:03:51.779Z,101685.63
2023-02-13T08:06:20.987Z,101688.09
2023-02-13T08:08:48.576Z,101696.97
2023-02-13T08:11:51.236Z,101694.72
2023-02-13T08:14:18.747Z,101687.75
2023-02-13T08:16:46.276Z,101684.69
2023-02-13T08:19:16.935Z,101689.13
2023-02-13T08:21:44.561Z,101684.50
2023-02-13T08:24:13.432Z,101686.19
2023-02-13T08:26:41.169Z,101677.22
2023-02-13T08:29:09.233Z,101686.22
2023-02-13T08:31:37.057Z,101680.88
2023-02-13T08:34:05.008Z,101681.81
2023-02-13T08:36:32.573Z,101683.28
2023-02-13T08:39:00.310Z,101677.84
2023-02-13T08:41:27.723Z,101672.16
2023-02-13T08:43:55.793Z,101672.25
2023-02-13T08:46:23.629Z,101661.16
2023-02-13T08:48:51.174Z,101669.34
2023-02-13T08:51:18.633Z,101670.63
2023-02-13T08:53:46.059Z,101669.81
2023-02-13T08:56:13.860Z,101663.88
2023-02-13T08:58:41.321Z,101673.88
2023-02-13T09:01:09.411Z,101676.09
2023-02-13T09:03:38.505Z,101665.72
2023-02-13T09:06:06.376Z,101664.19
2023-02-13T09:08:36.568Z,101654.16
2023-02-13T09:11:07.344Z,101656.59
2023-02-13T09:13:37.050Z,101657.88
2023-02-13T09:16:07.886Z,101651.53
2023-02-13T09:18:38.251Z,101653.63
2023-02-13T09:21:10.105Z,101651.19
2023-02-13T09:23:40.476Z,101644.19
2023-02-13T09:26:11.866Z,101637.59
2023-02-13T09:28:42.890Z,101638.41
2023-02-13T09:31:15.376Z,101639.03
2023-02-13T09:33:44.643Z,101634.69
2023-02-13T09:36:19.999Z,101634.06
2023-02-13T09:38:56.348Z,101625.78
2023-02-13T09:41:39.999Z,101633.06
2023-02-13T09:44:34.112Z,101620.59
2023-02-13T09:47:33.334Z,101621.44
2023-02-13T09:50:22.348Z,101607.78
2023-02-13T09:52:53.208Z,101597.22
2023-02-13T09:55:37.283Z,101605.69
2023-02-13T09:58:20.812Z,101599.53
2023-02-13T10:00:58.650Z,101596.41
2023-02-13T10:03:37.729Z,101590.72
2023-02-13T10:06:26.543Z,101589.41
2023-02-13T10:09:43.856Z,101582.66
2023-02-13T10:12:35.132Z,101583.03
2023-02-13T10:15:29.280Z,101576.66
2023-02-13T10:18:04.939Z,101573.06
2023-02-13T10:20:53.541Z,101558.91
2023-02-13T10:24:04.600Z,101562.38
2023-02-13T10:26:48.222Z,101548.59
2023-02-13T10:29:56.738Z,101541.44
2023-02-13T10:32:44.666Z,101535.34
2023-02-13T10:35:23.473Z,101530.84
2023-02-13T10:37:55.656Z,101532.69
2023-02-13T10:40:35.952Z,101528.78
2023-02-13T10:43:09.646Z,101519.31
2023-02-13T10:46:30.607Z,101511.09
2023-02-13T10:49:24.243Z,101510.22
2023-02-13T10:52:14.683Z,101515.63
2023-02-13T10:55:06.620Z,101497.75
2023-02-13T10:57:36.771Z,101501.00
2023-02-13T11:00:49.672Z,101488.50
2023-02-13T11:03:29.502Z,101479.72
2023-02-13T11:06:00.120Z,101481.81
2023-02-13T11:08:48.387Z,101477.41
2023-02-13T11:11:35.948Z,101469.50
2023-02-13T11:14:28.694Z,101457.72
2023-02-13T11:17:00.380Z,101463.22
2023-02-13T11:19:54.786Z,101459.00
2023-02-13T11:22:39.721Z,101461.88
2023-02-13T11:25:31.334Z,101454.19
2023-02-13T11:28:30.428Z,101451.31
2023-02-13T11:31:27.564Z,101445.44
2023-02-13T11:33:58.854Z,101438.72
2023-02-13T11:36:34.117Z,101434.53
2023-02-13T11:39:20.889Z,101431.19
2023-02-13T11:41:53.287Z,101418.88
2023-02-13T11:44:27.589Z,101416.00
2023-02-13T11:46:58.239Z,101413.53
2023-02-13T11:49:32.891Z,101415.31
2023-02-13T11:52:04.299Z,101406.31
2023-02-13T11:54:39.116Z,101400.34
2023-02-13T11:57:34.733Z,101397.84
2023-02-13T12:00:28.142Z,101408.78
2023-02-13T12:02:55.621Z,101395.72
2023-02-13T12:05:29.477Z,101395.38
2023-02-13T12:08:01.801Z,101387.44
2023-02-13T12:10:34.706Z,101376.59
2023-02-13T12:13:14.723Z,101370.19
2023-02-13T12:15:43.778Z,101373.44
2023-02-13T12:18:28.341Z,101374.28
2023-02-13T12:21:28.497Z,101375.97
2023-02-13T12:23:57.995Z,101378.81
2023-02-13T12:26:45.565Z,101370.16
2023-02-13T12:29:43.030Z,101367.28
2023-02-13T12:32:22.331Z,101365.53
2023-02-13T12:35:04.668Z,101361.22
2023-02-13T12:38:04.323Z,101360.16
2023-02-13T12:40:51.711Z,101354.81
2023-02-13T12:43:31.019Z,101348.13
2023-02-13T12:46:26.530Z,101342.63
2023-02-13T12:49:09.407Z,101336.25
2023-02-13T12:52:07.351Z,101336.94
2023-02-13T12:54:43.922Z,101337.44
2023-02-13T12:57:50.767Z,101333.06
2023-02-13T13:00:39.832Z,101335.88
2023-02-13T13:03:45.884Z,101331.16
2023-02-13T13:06:38.585Z,101324.03
2023-02-13T13:09:53.240Z,101326.97
2023-02-13T13:12:35.212Z,101322.69
2023-02-13T13:15:42.433Z,101308.84
2023-02-13T13:18:47.319Z,101316.94
2023-02-13T13:21:36.155Z,101305.44
2023-02-13T13:24:29.333Z,101303.16
2023-02-13T13:26:58.507Z,101305.34
2023-02-13T13:29:40.413Z,101295.94
2023-02-13T13:32:14.385Z,101295.16
2023-02-13T13:34:41.840Z,101292.16
2023-02-13T13:37:32.440Z,101285.50
2023-02-13T13:40:34.019Z,101280.31
2023-02-13T13:43:35.052Z,101281.97
2023-02-13T13:46:33.397Z,101283.19
2023-02-13T13:49:29.174Z,101275.47
2023-02-13T13:52:22.692Z,101288.81
2023-02-13T13:54:53.908Z,101277.38
2023-02-13T13:57:26.402Z,101273.47
2023-02-13T14:00:12.037Z,101275.56
2023-02-13T14:03:06.025Z,101266.16
2023-02-13T14:05:35.451Z,101264.59
2023-02-13T14:08:40.342Z,101271.03
2023-02-13T14:11:35.618Z,101271.13
2023-02-13T14:14:29.299Z,101261.25
2023-02-13T14:16:58.858Z,101258.22
2023-02-13T14:19:36.105Z,101259.22
2023-02-13T14:22:28.170Z,101252.59
2023-02-13T14:24:59.219Z,101251.59
2023-02-13T14:27:32.470Z,101252.78
2023-02-13T14:30:02.404Z,101251.59
2023-02-13T14:32:34.765Z,101246.78
2023-02-13T14:35:30.915Z,101253.56
2023-02-13T14:38:08.271Z,101240.44
2023-02-13T14:40:44.006Z,101236.94
2023-02-13T14:43:36.211Z,101248.25
2023-02-13T14:46:33.469Z,101236.16
2023-02-13T14:49:18.365Z,101235.66
2023-02-13T14:52:18.154Z,101234.34
2023-02-13T14:54:58.560Z,101226.25
2023-02-13T14:57:37.791Z,101228.72
2023-02-13T15:00:36.532Z,101225.72
2023-02-13T15:03:28.832Z,101224.81
2023-02-13T15:06:01.625Z,101226.81
2023-02-13T15:08:36.673Z,101228.91
2023-02-13T15:11:04.589Z,101224.41
2023-02-13T15:13:38.050Z,101215.66
2023-02-13T15:16:12.128Z,101218.25
2023-02-13T15:18:55.399Z,101219.28
2023-02-13T15:21:24.721Z,101226.03
2023-02-13T15:23:55.964Z,101217.78
2023-02-13T15:26:28.664Z,101218.72
2023-02-13T15:29:01.598Z,101206.31
2023-02-13T15:31:34.891Z,101206.84
2023-02-13T15:34:02.972Z,101196.13
2023-02-13T15:36:42.130Z,101194.69
2023-02-13T15:39:36.781Z,101191.56
2023-02-13T15:42:04.640Z,101190.22
2023-02-13T15:44:36.620Z,101188.91
2023-02-13T15:47:30.911Z,101185.94
2023-02-13T15:49:58.799Z,101190.69
2023-02-13T15:52:38.844Z,101184.59
2023-02-13T15:55:14.437Z,101185.63
2023-02-13T15:57:42.174Z,101192.19
2023-02-13T16:00:23.704Z,101194.38
2023-02-13T16:02:53.366Z,101185.88
2023-02-13T16:05:38.319Z,101194.88
2023-02-13T16:08:31.420Z,101198.56
2023-02-13T16:11:37.633Z,101193.88
2023-02-13T16:14:27.092Z,101194.41
2023-02-13T16:17:07.236Z,101202.78
2023-02-13T16:19:53.649Z,101204.34
2023-02-13T16:23:01.650Z,101204.81
2023-02-13T16:25:42.520Z,101201.41
2023-02-13T16:28:26.347Z,101205.56
2023-02-13T16:31:01.093Z,101205.22
2023-02-13T16:33:42.091Z,101213.53
2023-02-13T16:36:15.423Z,101209.28
2023-02-13T16:38:51.848Z,101214.34
2023-02-13T16:41:23.078Z,101208.84
2023-02-13T16:43:59.863Z,101209.34
2023-02-13T16:46:34.800Z,101207.13
2023-02-13T16:49:11.519Z,101211.47
2023-02-13T16:51:49.916Z,101206.19
2023-02-13T16:54:24.345Z,101203.44
2023-02-13T16:57:02.025Z,101197.63
2023-02-13T16:59:53.270Z,101197.63
2023-02-13T17:02:32.497Z,101199.13
2023-02-13T17:05:09.351Z,101202.16
2023-02-13T17:07:38.112Z,101193.34
2023-02-13T17:10:28.213Z,101185.72
2023-02-13T17:13:01.509Z,101190.69
2023-02-13T17:15:32.327Z,101196.03
2023-02-13T17:18:01.345Z,101186.09
2023-02-13T17:20:36.603Z,101187.00
2023-02-13T17:23:13.804Z,101171.38
2023-02-13T17:25:42.788Z,101178.00
2023-02-13T17:28:20.356Z,101175.41
2023-02-13T17:30:54.722Z,101175.56
2023-02-13T17:33:31.755Z,101176.59
2023-02-13T17:35:59.283Z,101176.50
2023-02-13T17:38:26.793Z,101174.97
2023-02-13T17:40:56.424Z,101176.19
2023-02-13T17:43:25.392Z,101175.75
2023-02-13T17:45:53.976Z,101182.06
2023-02-13T17:48:21.655Z,101176.94
2023-02-13T17:50:51.744Z,101181.59
2023-02-13T17:53:32.175Z,101177.34
2023-02-13T17:56:23.447Z,101180.59
2023-02-13T17:58:53.693Z,101181.13
2023-02-13T18:01:24.981Z,101186.09
2023-02-13T18:04:14.794Z,101177.03
2023-02-13T18:06:42.377Z,101181.13
2023-02-13T18:09:13.284Z,101176.72
2023-02-13T18:11:42.678Z,101175.28
2023-02-13T18:14:34.444Z,101180.88
2023-02-13T18:17:26.019Z,101184.25
2023-02-13T18:19:56.774Z,101184.34
2023-02-13T18:22:26.935Z,101196.41
2023-02-13T18:24:54.557Z,101190.53
2023-02-13T18:27:25.439Z,101192.03
2023-02-13T18:30:02.772Z,101189.38
2023-02-13T18:32:38.841Z,101189.28
2023-02-13T18:35:19.018Z,101188.13
2023-02-13T18:37:47.351Z,101180.59
2023-02-13T18:40:17.760Z,101182.69
2023-02-13T18:43:06.404Z,101186.34
2023-02-13T18:45:40.957Z,101176.47
2023-02-13T18:48:09.930Z,101167.91
2023-02-13T18:50:42.496Z,101172.63
2023-02-13T18:53:15.945Z,101175.22
2023-02-13T18:55:50.355Z,101178.88
2023-02-13T18:58:18.366Z,101171.63
2023-02-13T19:00:49.715Z,101170.47
2023-02-13T19:03:19.496Z,101174.06
2023-02-13T19:05:51.039Z,101172.06
2023-02-13T19:08:19.719Z,101174.22
2023-02-13T19:10:50.110Z,101169.91
2023-02-13T19:13:22.218Z,101166.78
2023-02-13T19:15:52.479Z,101165.41
2023-02-13T19:18:24.281Z,101168.31
2023-02-13T19:21:03.141Z,101162.78
2023-02-13T19:23:36.235Z,101162.28
2023-02-13T19:26:08.719Z,101161.50
2023-02-13T19:28:38.021Z,101161.72
2023-02-13T19:31:11.597Z,101170.81
2023-02-13T19:33:40.864Z,101164.16
2023-02-13T19:36:18.193Z,101162.22
2023-02-13T19:38:48.276Z,101159.16
2023-02-13T19:41:20.107Z,101149.94
2023-02-13T19:43:53.761Z,101157.47
2023-02-13T19:46:26.249Z,101151.00
2023-02-13T19:48:54.864Z,101146.84
2023-02-13T19:51:29.182Z,101144.97
2023-02-13T19:53:59.153Z,101143.78
2023-02-13T19:56:28.778Z,101151.84
2023-02-13T19:58:56.554Z,101153.31
2023-02-13T20:01:27.023Z,101148.34
2023-02-13T20:03:55.899Z,101153.09
2023-02-13T20:06:32.002Z,101151.59
2023-02-13T20:09:02.300Z,101154.81
2023-02-13T20:11:30.676Z,101149.06
2023-02-13T20:14:04.954Z,101145.75
2023-02-13T20:16:36.847Z,101157.75
2023-02-13T20:19:10.074Z,101148.34
2023-02-13T20:21:38.407Z,101147.53
2023-02-13T20:24:07.435Z,101139.69
2023-02-13T20:26:37.916Z,101139.69
2023-02-13T20:29:06.634Z,101135.50
2023-02-13T20:31:36.100Z,101133.50
2023-02-13T20:34:08.239Z,101131.94
2023-02-13T20:36:35.980Z,101136.63
2023-02-13T20:39:06.924Z,101134.94
2023-02-13T20:41:37.523Z,101126.06
2023-02-13T20:44:11.297Z,101129.09
2023-02-13T20:46:41.843Z,101138.03
2023-02-13T20:49:31.607Z,101130.47
2023-02-13T20:51:59.620Z,101128.13
2023-02-13T20:54:29.529Z,101128.25
2023-02-13T20:56:58.422Z,101125.44
2023-02-13T20:59:28.340Z,101119.28
2023-02-13T21:01:56.512Z,101117.47
2023-02-13T21:04:25.148Z,101122.34
2023-02-13T21:06:53.698Z,101113.63
2023-02-13T21:09:21.419Z,101107.56
2023-02-13T21:11:48.921Z,101116.56
2023-02-13T21:14:16.577Z,101112.19
2023-02-13T21:16:44.602Z,101112.56
2023-02-13T21:19:21.029Z,101110.25
2023-02-13T21:21:49.662Z,101108.72
2023-02-13T21:24:21.892Z,101110.75
2023-02-13T21:26:53.867Z,101107.72
2023-02-13T21:29:21.401Z,101105.59
2023-02-13T21:31:49.088Z,101101.53
2023-02-13T21:34:18.697Z,101096.06
2023-02-13T21:36:46.571Z,101100.06
2023-02-13T21:39:15.500Z,101092.91
2023-02-13T21:41:45.584Z,101093.31
2023-02-13T21:44:15.099Z,101095.44
2023-02-13T21:46:44.350Z,101098.03
2023-02-13T21:49:16.624Z,101098.41
2023-02-13T21:51:48.822Z,101103.25
2023-02-13T21:54:16.440Z,101109.91
2023-02-13T21:56:45.054Z,101102.59
2023-02-13T21:59:16.936Z,101094.69
2023-02-13T22:01:46.662Z,101084.44
2023-02-13T22:04:16.988Z,101086.78
2023-02-13T22:06:52.631Z,101088.53
2023-02-13T22:09:22.373Z,101088.53
2023-02-13T22:11:51.848Z,101092.84
2023-02-13T22:14:21.616Z,101093.97
2023-02-13T22:16:51.980Z,101093.69
2023-02-13T22:19:20.409Z,101083.69
2023-02-13T22:21:48.179Z,101084.91
2023-02-13T22:24:15.755Z,101081.81
2023-02-13T22:26:45.580Z,101080.22
2023-02-13T22:29:16.243Z,101069.31
2023-02-13T22:31:44.315Z,101067.94
2023-02-13T22:34:13.892Z,101066.16
2023-02-13T22:36:42.821Z,101062.81
2023-02-13T22:39:12.015Z,101063.16
2023-02-13T22:41:39.862Z,101055.59
2023-02-13T22:44:07.436Z,101050.75
2023-02-13T22:46:35.417Z,101051.97
2023-02-13T22:49:05.505Z,101054.59
2023-02-13T22:51:36.481Z,101048.75
2023-02-13T22:54:05.185Z,101046.75
2023-02-13T22:56:33.756Z,101043.53
2023-02-13T22:59:01.634Z,101039.34
2023-02-13T23:01:30.377Z,101042.50
2023-02-13T23:03:58.787Z,101036.75
2023-02-13T23:06:27.142Z,101038.22
2023-02-13T23:08:58.077Z,101034.66
2023-02-13T23:11:47.034Z,101043.00
2023-02-13T23:14:15.147Z,101039.78
2023-02-13T23:17:02.414Z,101033.75
2023-02-13T23:19:33.808Z,101040.09
2023-02-13T23:22:01.776Z,101030.94
2023-02-13T23:24:30.263Z,101030.03
2023-02-13T23:26:58.859Z,101025.28
2023-02-13T23:29:27.376Z,101020.78
2023-02-13T23:31:54.970Z,101009.81
2023-02-13T23:34:23.320Z,101009.81
2023-02-13T23:36:53.667Z,101004.88
2023-02-13T23:39:21.563Z,100988.28
2023-02-13T23:41:49.021Z,100994.06
2023-02-13T23:44:16.548Z,100992.50
2023-02-13T23:46:44.149Z,100991.59
2023-02-13T23:49:11.691Z,100988.25
2023-02-13T23:51:39.162Z,100986.91
2023-02-13T23:54:06.737Z,100978.59
2023-02-13T23:56:34.255Z,100986.19
2023-02-13T23:59:01.797Z,100980.81
